4XCDA LLHZ-LLFK

Flight info

Callsign 4XCDA
Flight time N/A
Altitude 4000
Route CVFR
Aircraft B36T/L-VGD/A

Departure

Time 2026-04-28 08:49
Airport Herzliya Airport (LLHZ)

Arrival

Time N/A
Airport Fiq Airfield (LLFK)
Time Latitude Longitude Altitude Speed Heading
2026-04-28 08:41 32.17850 34.83826 120 ft 0 kts 20°
2026-04-28 08:47 32.17875 34.83839 117 ft 4 kts 45°
2026-04-28 08:47 32.17891 34.83862 121 ft 0 kts 22°
2026-04-28 08:48 32.17908 34.83857 123 ft 10 kts 313°
2026-04-28 08:48 32.17917 34.83833 120 ft 0 kts 285°
2026-04-28 08:48 32.17960 34.83673 111 ft 64 kts 288°
2026-04-28 08:48 32.18181 34.82920 364 ft 115 kts 297°
2026-04-28 08:49 32.18943 34.82760 692 ft 147 kts 27°
2026-04-28 08:49 32.19705 34.83673 910 ft 175 kts 56°
2026-04-28 08:49 32.20317 34.84906 993 ft 160 kts 57°
2026-04-28 08:49 32.20928 34.85889 1071 ft 145 kts 42°
2026-04-28 08:50 32.21684 34.86585 1234 ft 131 kts 34°
2026-04-28 08:50 32.22404 34.87181 1565 ft 122 kts 26°
2026-04-28 08:50 32.23198 34.87596 1741 ft 129 kts 16°
2026-04-28 08:50 32.24067 34.87955 1762 ft 136 kts
2026-04-28 08:51 32.24888 34.88152 2282 ft 105 kts
2026-04-28 08:51 32.25632 34.88305 3035 ft 113 kts
2026-04-28 08:51 32.26592 34.88447 3058 ft 177 kts
2026-04-28 08:51 32.27910 34.88655 3112 ft 204 kts
2026-04-28 08:52 32.29353 34.88994 2661 ft 203 kts 15°
2026-04-28 08:52 32.30582 34.89442 2168 ft 186 kts 18°
2026-04-28 08:52 32.31812 34.89948 1817 ft 184 kts 19°
2026-04-28 08:52 32.32987 34.90369 1660 ft 169 kts
2026-04-28 08:53 32.34117 34.90508 1577 ft 158 kts
2026-04-28 08:53 32.35193 34.90547 1540 ft 152 kts 360°
2026-04-28 08:53 32.36247 34.90554 1537 ft 152 kts 357°
2026-04-28 08:53 32.37316 34.90478 1323 ft 158 kts 352°
2026-04-28 08:54 32.38381 34.90335 1270 ft 153 kts 352°
2026-04-28 08:54 32.39375 34.90249 1492 ft 140 kts 358°
2026-04-28 08:54 32.40381 34.90237 1503 ft 145 kts 358°
2026-04-28 08:54 32.41388 34.90232 1513 ft 145 kts 359°
2026-04-28 08:55 32.42418 34.90228 1515 ft 150 kts 358°
2026-04-28 08:55 32.43466 34.90258 1507 ft 153 kts
2026-04-28 08:55 32.44580 34.90425 1524 ft 169 kts
2026-04-28 08:55 32.45755 34.90624 1513 ft 168 kts 12°
2026-04-28 08:56 32.46631 34.91448 1510 ft 166 kts 65°
2026-04-28 08:56 32.46888 34.92685 1979 ft 146 kts 76°
2026-04-28 08:56 32.47107 34.93817 2448 ft 138 kts 77°
2026-04-28 08:56 32.47325 34.94996 2507 ft 155 kts 77°
2026-04-28 08:57 32.47559 34.96290 2517 ft 164 kts 77°
2026-04-28 08:57 32.47799 34.97618 2523 ft 165 kts 77°
2026-04-28 08:57 32.47961 34.98498 2518 ft 166 kts 77°
2026-04-28 08:57 32.48204 34.99864 2522 ft 178 kts 78°
2026-04-28 08:58 32.48420 35.01385 2523 ft 191 kts 82°
2026-04-28 08:58 32.48574 35.02911 2518 ft 185 kts 83°
2026-04-28 08:58 32.48843 35.04379 2504 ft 180 kts 72°
2026-04-28 08:58 32.49228 35.05773 2501 ft 177 kts 71°
2026-04-28 08:59 32.49612 35.07157 2500 ft 177 kts 71°
2026-04-28 08:59 32.50038 35.08666 2517 ft 207 kts 70°
2026-04-28 08:59 32.50612 35.10281 2521 ft 213 kts 64°
2026-04-28 08:59 32.51304 35.11807 2518 ft 207 kts 59°
2026-04-28 09:00 32.52093 35.13224 2517 ft 204 kts 51°
2026-04-28 09:00 32.53001 35.14480 2515 ft 203 kts 47°
2026-04-28 09:00 32.53975 35.15703 2519 ft 203 kts 43°
2026-04-28 09:00 32.54970 35.16860 2508 ft 202 kts 43°
2026-04-28 09:01 32.55973 35.18020 2518 ft 202 kts 43°
2026-04-28 09:01 32.56753 35.19403 2513 ft 203 kts 65°
2026-04-28 09:01 32.57333 35.20986 2515 ft 217 kts 65°
2026-04-28 09:01 32.57957 35.22651 2515 ft 222 kts 65°
2026-04-28 09:02 32.58581 35.24317 2496 ft 222 kts 65°
2026-04-28 09:02 32.59192 35.25962 2500 ft 214 kts 66°
2026-04-28 09:02 32.59748 35.27537 2507 ft 203 kts 66°
2026-04-28 09:02 32.60290 35.29056 2498 ft 198 kts 66°
2026-04-28 09:03 32.60815 35.30518 2492 ft 194 kts 66°
2026-04-28 09:03 32.61343 35.31982 2490 ft 192 kts 66°
2026-04-28 09:03 32.61871 35.33459 2491 ft 192 kts 66°
2026-04-28 09:03 32.62394 35.34920 2495 ft 191 kts 65°
2026-04-28 09:04 32.62965 35.36317 2493 ft 192 kts 60°
2026-04-28 09:04 32.63617 35.37721 2492 ft 190 kts 59°
2026-04-28 09:04 32.64301 35.39013 2500 ft 191 kts 52°
2026-04-28 09:04 32.65224 35.40178 2503 ft 187 kts 43°
2026-04-28 09:05 32.66148 35.41252 2505 ft 187 kts 43°
2026-04-28 09:05 32.67105 35.42362 2495 ft 192 kts 42°
2026-04-28 09:05 32.68209 35.43249 2503 ft 193 kts 28°
2026-04-28 09:05 32.69382 35.44018 2503 ft 193 kts 28°
2026-04-28 09:06 32.70557 35.44782 2504 ft 192 kts 28°
2026-04-28 09:06 32.71730 35.45530 2503 ft 191 kts 28°
2026-04-28 09:06 32.72896 35.46267 2503 ft 190 kts 28°
2026-04-28 09:06 32.74035 35.46992 2502 ft 188 kts 28°
2026-04-28 09:07 32.75194 35.47731 2498 ft 187 kts 28°
2026-04-28 09:07 32.76360 35.48471 2503 ft 196 kts 28°
2026-04-28 09:07 32.77568 35.49236 2506 ft 196 kts 28°
2026-04-28 09:07 32.78767 35.49984 2507 ft 194 kts 25°
2026-04-28 09:08 32.80023 35.50575 2505 ft 194 kts 20°
2026-04-28 09:08 32.81294 35.51126 2508 ft 194 kts 20°
2026-04-28 09:08 32.82565 35.51677 2506 ft 196 kts 20°
2026-04-28 09:08 32.83838 35.52228 2502 ft 194 kts 20°
2026-04-28 09:09 32.85099 35.52778 2505 ft 194 kts 20°
2026-04-28 09:09 32.86371 35.53329 2505 ft 194 kts 20°
2026-04-28 09:09 32.87546 35.54107 2502 ft 195 kts 35°
2026-04-28 09:09 32.88643 35.55055 2501 ft 194 kts 36°
2026-04-28 09:10 32.89734 35.56006 2501 ft 194 kts 36°
2026-04-28 09:10 32.90816 35.56951 2501 ft 193 kts 36°
2026-04-28 09:10 32.91952 35.57934 2506 ft 208 kts 36°
2026-04-28 09:10 32.93183 35.58918 2368 ft 219 kts 28°
2026-04-28 09:11 32.94635 35.59363 2376 ft 217 kts 356°
2026-04-28 09:11 32.95851 35.58874 1845 ft 156 kts 325°
2026-04-28 09:11 32.96629 35.58173 1402 ft 151 kts 325°
2026-04-28 09:11 32.97670 35.57469 958 ft 184 kts 333°
2026-04-28 09:12 32.98704 35.56783 1152 ft 165 kts 334°
2026-04-28 09:12 32.99798 35.56256 1792 ft 175 kts 342°
2026-04-28 09:12 33.01010 35.56377 2258 ft 185 kts 26°
2026-04-28 09:12 33.02138 35.57184 2500 ft 201 kts 32°
2026-04-28 09:13 33.03327 35.58169 2506 ft 212 kts 35°
2026-04-28 09:13 33.04538 35.59212 2510 ft 217 kts 35°
2026-04-28 09:13 33.05758 35.60266 2511 ft 217 kts 36°
2026-04-28 09:13 33.06992 35.61334 2505 ft 219 kts 35°
2026-04-28 09:14 33.08331 35.62156 2499 ft 218 kts 16°
2026-04-28 09:14 33.09819 35.62499 2500 ft 219 kts
2026-04-28 09:14 33.11337 35.62670 2503 ft 219 kts
2026-04-28 09:14 33.12767 35.62831 2496 ft 192 kts
2026-04-28 09:15 33.14046 35.62989 2487 ft 178 kts
2026-04-28 09:15 33.15182 35.62568 2388 ft 178 kts 331°
2026-04-28 09:15 33.16181 35.61878 2144 ft 152 kts 328°
2026-04-28 09:15 33.17048 35.61222 1957 ft 151 kts 326°
2026-04-28 09:16 33.17893 35.60574 1723 ft 131 kts 326°
2026-04-28 09:16 33.18530 35.60029 1334 ft 103 kts 319°
2026-04-28 09:16 33.19146 35.59396 1138 ft 127 kts 317°
2026-04-28 09:16 33.19851 35.58704 814 ft 133 kts 328°
2026-04-28 09:17 33.20610 35.58682 532 ft 97 kts 31°
2026-04-28 09:17 33.21129 35.59184 296 ft 99 kts 37°
2026-04-28 09:17 33.21556 35.59560 319 ft 46 kts 35°
2026-04-28 09:17 33.21690 35.59665 331 ft 17 kts 304°
2026-04-28 09:18 33.21558 35.59548 318 ft 35 kts 213°
2026-04-28 09:18 33.21405 35.59415 304 ft 18 kts 242°
2026-04-28 09:18 33.21413 35.59353 299 ft 5 kts 265°
2026-04-28 09:18 33.21374 35.59274 296 ft 11 kts 274°
2026-04-28 09:19 33.21375 35.59266 295 ft 0 kts 274°